createdAt,value
2023-01-06T00:01:57.441Z,9.96
2023-01-06T00:02:57.472Z,9.97
2023-01-06T00:03:57.468Z,9.96
2023-01-06T00:04:57.553Z,9.95
2023-01-06T00:05:57.504Z,9.93
2023-01-06T00:06:57.562Z,9.88
2023-01-06T00:07:57.542Z,9.84
2023-01-06T00:09:57.549Z,9.83
2023-01-06T00:11:57.519Z,9.85
2023-01-06T00:12:57.517Z,9.83
2023-01-06T00:13:57.507Z,9.84
2023-01-06T00:14:57.523Z,9.86
2023-01-06T00:15:57.588Z,9.85
2023-01-06T00:17:57.546Z,9.87
2023-01-06T00:18:57.477Z,9.88
2023-01-06T00:19:57.488Z,9.89
2023-01-06T00:20:57.569Z,9.91
2023-01-06T00:21:57.537Z,9.89
2023-01-06T00:22:57.552Z,9.86
2023-01-06T00:23:57.528Z,9.85
2023-01-06T00:24:57.514Z,9.83
2023-01-06T00:25:57.581Z,9.81
2023-01-06T00:27:57.511Z,9.79
2023-01-06T00:28:57.630Z,9.80
2023-01-06T00:29:57.560Z,9.81
2023-01-06T00:30:57.630Z,9.82
2023-01-06T00:31:57.553Z,9.85
2023-01-06T00:32:57.552Z,9.86
2023-01-06T00:33:57.625Z,9.88
2023-01-06T00:34:57.538Z,9.87
2023-01-06T00:35:57.596Z,9.86
2023-01-06T00:36:57.532Z,9.87
2023-01-06T00:37:57.532Z,9.88
2023-01-06T00:38:57.690Z,9.87
2023-01-06T00:41:57.534Z,9.86
2023-01-06T00:43:57.583Z,9.85
2023-01-06T00:44:57.610Z,9.83
2023-01-06T00:45:57.591Z,9.81
2023-01-06T00:46:57.575Z,9.82
2023-01-06T00:47:57.571Z,9.79
2023-01-06T00:49:05.095Z,9.73
2023-01-06T00:49:57.568Z,9.63
2023-01-06T00:50:57.646Z,9.57
2023-01-06T00:51:57.568Z,9.54
2023-01-06T00:52:57.571Z,9.56
2023-01-06T00:55:57.666Z,9.52
2023-01-06T00:57:57.581Z,9.51
2023-01-06T00:58:57.680Z,9.50
2023-01-06T00:59:57.633Z,9.51
2023-01-06T01:00:57.632Z,9.53
2023-01-06T01:01:57.758Z,9.54
2023-01-06T01:03:57.625Z,9.55
2023-01-06T01:04:57.606Z,9.54
2023-01-06T01:05:57.641Z,9.55
2023-01-06T01:06:57.782Z,9.58
2023-01-06T01:10:57.644Z,9.59
2023-01-06T01:14:57.705Z,9.57
2023-01-06T01:15:57.750Z,9.54
2023-01-06T01:16:57.648Z,9.51
2023-01-06T01:17:57.628Z,9.48
2023-01-06T01:18:57.700Z,9.49
2023-01-06T01:19:57.691Z,9.47
2023-01-06T01:20:57.721Z,9.48
2023-01-06T01:22:57.678Z,9.50
2023-01-06T01:24:57.757Z,9.52
2023-01-06T01:25:57.691Z,9.54
2023-01-06T01:26:57.664Z,9.53
2023-01-06T01:27:57.642Z,9.52
2023-01-06T01:28:57.691Z,9.49
2023-01-06T01:29:57.703Z,9.47
2023-01-06T01:30:57.750Z,9.45
2023-01-06T01:31:57.726Z,9.43
2023-01-06T01:32:57.680Z,9.41
2023-01-06T01:33:57.756Z,9.40
2023-01-06T01:35:57.729Z,9.41
2023-01-06T01:36:57.807Z,9.42
2023-01-06T01:37:57.724Z,9.44
2023-01-06T01:41:57.769Z,9.43
2023-01-06T01:42:57.736Z,9.44
2023-01-06T01:43:57.738Z,9.46
2023-01-06T01:45:57.805Z,9.45
2023-01-06T01:48:57.757Z,9.43
2023-01-06T01:49:57.719Z,9.41
2023-01-06T01:50:57.705Z,9.40
2023-01-06T01:52:57.726Z,9.39
2023-01-06T01:55:57.788Z,9.38
2023-01-06T01:57:57.739Z,9.39
2023-01-06T01:58:57.793Z,9.38
2023-01-06T02:00:57.775Z,9.37
2023-01-06T02:01:57.888Z,9.36
2023-01-06T02:03:57.819Z,9.35
2023-01-06T02:04:57.792Z,9.36
2023-01-06T02:05:57.782Z,9.35
2023-01-06T02:07:57.817Z,9.34
2023-01-06T02:08:57.801Z,9.32
2023-01-06T02:09:57.769Z,9.31
2023-01-06T02:12:57.758Z,9.32
2023-01-06T02:13:57.766Z,9.31
2023-01-06T02:14:57.802Z,9.30
2023-01-06T02:15:57.788Z,9.29
2023-01-06T02:16:57.844Z,9.28
2023-01-06T02:17:57.816Z,9.23
2023-01-06T02:18:57.830Z,9.18
2023-01-06T02:19:57.815Z,9.16
2023-01-06T02:20:57.781Z,9.09
2023-01-06T02:21:57.850Z,9.01
2023-01-06T02:22:57.803Z,8.90
2023-01-06T02:23:57.818Z,8.84
2023-01-06T02:24:57.848Z,8.78
2023-01-06T02:25:57.803Z,8.76
2023-01-06T02:26:57.796Z,8.77
2023-01-06T02:27:57.802Z,8.79
2023-01-06T02:28:57.842Z,8.82
2023-01-06T02:29:57.851Z,8.86
2023-01-06T02:30:57.895Z,8.89
2023-01-06T02:31:57.848Z,8.92
2023-01-06T02:32:57.831Z,8.93
2023-01-06T02:33:57.808Z,8.91
2023-01-06T02:34:57.891Z,8.89
2023-01-06T02:35:57.829Z,8.85
2023-01-06T02:36:57.827Z,8.71
2023-01-06T02:37:57.841Z,8.57
2023-01-06T02:38:57.836Z,8.40
2023-01-06T02:39:57.908Z,8.31
2023-01-06T02:41:57.878Z,8.30
2023-01-06T02:42:57.889Z,8.36
2023-01-06T02:43:57.858Z,8.37
2023-01-06T02:44:57.915Z,8.23
2023-01-06T02:45:57.861Z,8.08
2023-01-06T02:47:57.936Z,7.97
2023-01-06T02:48:57.886Z,7.98
2023-01-06T02:49:57.929Z,8.02
2023-01-06T02:50:57.926Z,8.00
2023-01-06T02:51:57.862Z,7.91
2023-01-06T02:52:57.897Z,7.93
2023-01-06T02:53:57.867Z,8.00
2023-01-06T02:55:57.870Z,8.07
2023-01-06T02:56:57.921Z,8.15
2023-01-06T02:57:57.915Z,8.26
2023-01-06T02:58:57.919Z,8.37
2023-01-06T03:00:57.927Z,8.44
2023-01-06T03:01:58.127Z,8.53
2023-01-06T03:02:57.920Z,8.58
2023-01-06T03:03:57.897Z,8.66
2023-01-06T03:04:57.994Z,8.72
2023-01-06T03:05:57.949Z,8.78
2023-01-06T03:06:57.912Z,8.84
2023-01-06T03:07:57.971Z,8.88
2023-01-06T03:08:57.906Z,8.91
2023-01-06T03:09:57.971Z,8.95
2023-01-06T03:11:57.908Z,8.93
2023-01-06T03:13:57.921Z,8.95
2023-01-06T03:14:57.986Z,8.96
2023-01-06T03:15:57.975Z,8.99
2023-01-06T03:16:57.921Z,9.01
2023-01-06T03:17:57.990Z,9.03
2023-01-06T03:18:57.986Z,9.05
2023-01-06T03:19:58.022Z,9.09
2023-01-06T03:20:57.934Z,9.12
2023-01-06T03:22:57.978Z,9.08
2023-01-06T03:23:57.973Z,9.07
2023-01-06T03:24:58.051Z,9.08
2023-01-06T03:25:57.994Z,9.10
2023-01-06T03:26:57.990Z,9.11
2023-01-06T03:27:58.023Z,9.12
2023-01-06T03:28:57.986Z,9.14
2023-01-06T03:29:57.947Z,9.16
2023-01-06T03:30:58.043Z,9.19
2023-01-06T03:31:58.018Z,9.21
2023-01-06T03:32:58.042Z,9.18
2023-01-06T03:33:58.003Z,9.16
2023-01-06T03:35:58.009Z,9.12
2023-01-06T03:36:57.989Z,9.08
2023-01-06T03:37:58.016Z,9.09
2023-01-06T03:38:57.989Z,9.07
2023-01-06T03:39:58.038Z,9.05
2023-01-06T03:40:58.045Z,9.04
2023-01-06T03:41:58.046Z,9.02
2023-01-06T03:42:58.039Z,9.01
2023-01-06T03:43:58.003Z,9.00
2023-01-06T03:44:57.999Z,9.01
2023-01-06T03:45:58.080Z,9.00
2023-01-06T03:46:58.209Z,8.95
2023-01-06T03:47:58.015Z,8.90
2023-01-06T03:48:57.996Z,8.87
2023-01-06T03:49:58.052Z,8.85
2023-01-06T03:50:58.045Z,8.84
2023-01-06T03:51:58.054Z,8.85
2023-01-06T03:53:58.079Z,8.88
2023-01-06T03:54:58.056Z,8.90
2023-01-06T03:55:58.056Z,8.93
2023-01-06T03:56:58.016Z,8.90
2023-01-06T03:57:58.036Z,8.89
2023-01-06T03:58:58.113Z,8.90
2023-01-06T03:59:58.093Z,8.94
2023-01-06T04:00:58.098Z,8.96
2023-01-06T04:01:58.057Z,8.99
2023-01-06T04:02:58.065Z,9.00
2023-01-06T04:03:58.175Z,9.01
2023-01-06T04:04:58.045Z,9.03
2023-01-06T04:07:58.079Z,9.02
2023-01-06T04:09:58.057Z,9.03
2023-01-06T04:10:58.154Z,9.05
2023-01-06T04:11:58.106Z,9.04
2023-01-06T04:13:58.141Z,9.03
2023-01-06T04:17:58.100Z,9.02
2023-01-06T04:18:58.162Z,8.99
2023-01-06T04:19:58.090Z,8.95
2023-01-06T04:20:58.113Z,8.92
2023-01-06T04:21:58.090Z,8.90
2023-01-06T04:22:58.139Z,8.89
2023-01-06T04:23:58.140Z,8.87
2023-01-06T04:25:58.217Z,8.82
2023-01-06T04:26:58.107Z,8.75
2023-01-06T04:27:58.114Z,8.65
2023-01-06T04:28:58.133Z,8.58
2023-01-06T04:29:58.151Z,8.57
2023-01-06T04:30:58.149Z,8.56
2023-01-06T04:31:58.107Z,8.54
2023-01-06T04:32:58.112Z,8.57
2023-01-06T04:33:58.143Z,8.64
2023-01-06T04:34:58.127Z,8.69
2023-01-06T04:35:58.189Z,8.74
2023-01-06T04:36:58.139Z,8.78
2023-01-06T04:38:58.160Z,8.75
2023-01-06T04:40:58.209Z,8.76
2023-01-06T04:41:58.151Z,8.78
2023-01-06T04:42:58.185Z,8.80
2023-01-06T04:44:58.138Z,8.82
2023-01-06T04:45:58.246Z,8.80
2023-01-06T04:46:58.154Z,8.64
2023-01-06T04:47:58.160Z,8.59
2023-01-06T04:48:58.179Z,8.60
2023-01-06T04:49:58.193Z,8.55
2023-01-06T04:50:58.205Z,8.44
2023-01-06T04:51:58.196Z,8.39
2023-01-06T04:52:58.169Z,8.35
2023-01-06T04:53:58.247Z,8.29
2023-01-06T04:54:58.216Z,8.27
2023-01-06T04:55:58.218Z,8.25
2023-01-06T04:56:58.223Z,8.21
2023-01-06T04:57:58.189Z,8.24
2023-01-06T04:58:58.213Z,8.21
2023-01-06T04:59:58.180Z,8.23
2023-01-06T05:00:58.200Z,8.21
2023-01-06T05:01:58.254Z,8.23
2023-01-06T05:02:58.269Z,8.28
2023-01-06T05:03:58.296Z,8.37
2023-01-06T05:04:58.207Z,8.46
2023-01-06T05:05:58.195Z,8.49
2023-01-06T05:06:58.241Z,8.44
2023-01-06T05:07:58.180Z,8.35
2023-01-06T05:08:58.253Z,8.36
2023-01-06T05:09:58.214Z,8.33
2023-01-06T05:10:58.223Z,8.36
2023-01-06T05:11:58.254Z,8.43
2023-01-06T05:12:58.254Z,8.49
2023-01-06T05:13:58.263Z,8.57
2023-01-06T05:14:58.254Z,8.66
2023-01-06T05:15:58.253Z,8.70
2023-01-06T05:16:58.306Z,8.77
2023-01-06T05:17:58.267Z,8.82
2023-01-06T05:18:58.262Z,8.89
2023-01-06T05:19:58.252Z,8.96
2023-01-06T05:20:58.224Z,9.00
2023-01-06T05:21:58.316Z,9.01
2023-01-06T05:22:58.255Z,9.04
2023-01-06T05:23:58.281Z,9.07
2023-01-06T05:24:58.234Z,9.10
2023-01-06T05:25:58.269Z,9.13
2023-01-06T05:26:58.308Z,9.12
2023-01-06T05:27:58.235Z,9.13
2023-01-06T05:28:58.297Z,9.11
2023-01-06T05:29:58.313Z,9.13
2023-01-06T05:30:58.285Z,9.14
2023-01-06T05:31:58.371Z,9.13
2023-01-06T05:32:58.295Z,9.15
2023-01-06T05:33:58.305Z,9.19
2023-01-06T05:34:58.313Z,9.22
2023-01-06T05:35:58.310Z,9.25
2023-01-06T05:36:58.321Z,9.27
2023-01-06T05:37:58.268Z,9.29
2023-01-06T05:38:58.280Z,9.30
2023-01-06T05:39:58.319Z,9.28
2023-01-06T05:40:58.323Z,9.27
2023-01-06T05:41:58.284Z,9.29
2023-01-06T05:42:58.329Z,9.30
2023-01-06T05:43:58.341Z,9.26
2023-01-06T05:44:58.360Z,9.13
2023-01-06T05:45:58.408Z,9.07
2023-01-06T05:46:58.295Z,9.03
2023-01-06T05:47:58.342Z,8.98
2023-01-06T05:48:58.307Z,8.94
2023-01-06T05:49:58.334Z,8.92
2023-01-06T05:50:58.322Z,8.95
2023-01-06T05:51:58.333Z,9.02
2023-01-06T05:52:59.949Z,9.05
2023-01-06T05:53:58.355Z,9.11
2023-01-06T05:54:58.317Z,9.17
2023-01-06T05:55:58.352Z,9.19
2023-01-06T05:56:58.358Z,9.21
2023-01-06T05:57:58.387Z,9.22
2023-01-06T05:58:58.325Z,9.23
2023-01-06T05:59:58.317Z,9.26
2023-01-06T06:00:58.405Z,9.32
2023-01-06T06:01:58.436Z,9.37
2023-01-06T06:02:58.341Z,9.42
2023-01-06T06:03:58.440Z,9.44
2023-01-06T06:04:58.354Z,9.48
2023-01-06T06:05:58.403Z,9.50
2023-01-06T06:06:58.387Z,9.52
2023-01-06T06:07:58.359Z,9.54
2023-01-06T06:08:58.454Z,9.52
2023-01-06T06:09:58.402Z,9.49
2023-01-06T06:10:58.352Z,9.48
2023-01-06T06:11:58.392Z,9.49
2023-01-06T06:12:58.392Z,9.51
2023-01-06T06:13:58.425Z,9.52
2023-01-06T06:14:58.374Z,9.56
2023-01-06T06:15:58.410Z,9.57
2023-01-06T06:16:58.463Z,9.58
2023-01-06T06:17:58.388Z,9.61
2023-01-06T06:18:58.480Z,9.64
2023-01-06T06:22:58.423Z,9.61
2023-01-06T06:24:58.577Z,9.64
2023-01-06T06:26:58.431Z,9.66
2023-01-06T06:27:58.409Z,9.68
2023-01-06T06:28:58.416Z,9.71
2023-01-06T06:29:58.500Z,9.73
2023-01-06T06:30:58.457Z,9.76
2023-01-06T06:31:58.459Z,9.78
2023-01-06T06:32:58.453Z,9.79
2023-01-06T06:33:58.500Z,9.70
2023-01-06T06:34:58.454Z,9.60
2023-01-06T06:35:58.457Z,9.57
2023-01-06T06:36:58.456Z,9.53
2023-01-06T06:38:58.470Z,9.57
2023-01-06T06:39:58.497Z,9.59
2023-01-06T06:40:58.427Z,9.58
2023-01-06T06:41:58.444Z,9.40
2023-01-06T06:42:58.450Z,9.20
2023-01-06T06:43:58.429Z,9.11
2023-01-06T06:45:58.550Z,9.10
2023-01-06T06:46:58.510Z,9.06
2023-01-06T06:47:58.617Z,9.08
2023-01-06T06:48:58.462Z,9.13
2023-01-06T06:49:58.500Z,9.18
2023-01-06T06:50:58.511Z,9.25
2023-01-06T06:51:58.495Z,9.20
2023-01-06T06:52:58.462Z,8.98
2023-01-06T06:53:58.483Z,8.89
2023-01-06T06:54:58.529Z,8.95
2023-01-06T06:55:58.512Z,9.04
2023-01-06T06:56:58.521Z,9.15
2023-01-06T06:57:58.467Z,9.25
2023-01-06T06:58:58.475Z,9.32
2023-01-06T06:59:58.562Z,9.39
2023-01-06T07:00:58.565Z,9.44
2023-01-06T07:01:58.619Z,9.47
2023-01-06T07:02:58.510Z,9.49
2023-01-06T07:04:58.590Z,9.48
2023-01-06T07:06:58.515Z,9.46
2023-01-06T07:07:58.524Z,9.45
2023-01-06T07:08:58.488Z,9.43
2023-01-06T07:09:58.566Z,9.44
2023-01-06T07:10:58.500Z,9.43
2023-01-06T07:11:58.509Z,9.42
2023-01-06T07:12:58.675Z,9.41
2023-01-06T07:14:58.564Z,9.38
2023-01-06T07:15:58.655Z,9.35
2023-01-06T07:17:58.600Z,9.33
2023-01-06T07:18:58.540Z,9.31
2023-01-06T07:19:58.611Z,9.28
2023-01-06T07:20:58.569Z,9.26
2023-01-06T07:22:58.577Z,9.25
2023-01-06T07:24:58.555Z,9.24
2023-01-06T07:25:58.560Z,9.22
2023-01-06T07:26:58.591Z,9.21
2023-01-06T07:27:58.656Z,9.22
2023-01-06T07:28:58.563Z,9.20
2023-01-06T07:29:58.604Z,9.19
2023-01-06T07:30:58.736Z,9.16
2023-01-06T07:31:58.595Z,9.12
2023-01-06T07:32:58.643Z,9.07
2023-01-06T07:33:58.579Z,9.05
2023-01-06T07:34:58.623Z,9.04
2023-01-06T07:35:58.595Z,9.07
2023-01-06T07:36:58.602Z,9.12
2023-01-06T07:37:58.658Z,9.19
2023-01-06T07:38:58.585Z,9.22
2023-01-06T07:39:58.600Z,9.25
2023-01-06T07:40:58.652Z,9.28
2023-01-06T07:41:58.568Z,9.32
2023-01-06T07:42:58.680Z,9.34
2023-01-06T07:43:58.634Z,9.37
2023-01-06T07:44:58.632Z,9.38
2023-01-06T07:45:58.679Z,9.39
2023-01-06T07:46:58.590Z,9.41
2023-01-06T07:48:58.658Z,9.40
2023-01-06T07:49:58.622Z,9.38
2023-01-06T07:50:58.712Z,9.37
2023-01-06T07:51:58.633Z,9.35
2023-01-06T07:54:58.602Z,9.34
2023-01-06T07:55:58.695Z,9.33
2023-01-06T07:56:58.636Z,9.32
2023-01-06T07:57:58.754Z,9.30
2023-01-06T07:58:58.676Z,9.27
2023-01-06T07:59:58.616Z,9.26
2023-01-06T08:00:58.674Z,9.24
2023-01-06T08:02:58.688Z,9.12
2023-01-06T08:03:58.673Z,9.06
2023-01-06T08:05:00.268Z,8.96
2023-01-06T08:05:58.705Z,8.92
2023-01-06T08:06:58.686Z,8.90
2023-01-06T08:08:58.730Z,8.93
2023-01-06T08:09:58.630Z,8.96
2023-01-06T08:10:58.691Z,9.01
2023-01-06T08:11:58.656Z,9.06
2023-01-06T08:12:58.664Z,9.13
2023-01-06T08:13:58.756Z,9.17
2023-01-06T08:14:58.644Z,9.22
2023-01-06T08:15:58.729Z,9.24
2023-01-06T08:16:58.703Z,9.26
2023-01-06T08:17:58.709Z,9.28
2023-01-06T08:18:58.731Z,9.30
2023-01-06T08:19:58.689Z,9.33
2023-01-06T08:20:58.716Z,9.36
2023-01-06T08:21:58.681Z,9.37
2023-01-06T08:22:58.707Z,9.39
2023-01-06T08:23:58.735Z,9.40
2023-01-06T08:24:58.741Z,9.37
2023-01-06T08:25:58.725Z,9.35
2023-01-06T08:26:58.759Z,9.31
2023-01-06T08:27:58.733Z,9.27
2023-01-06T08:29:58.684Z,9.29
2023-01-06T08:30:58.805Z,9.33
2023-01-06T08:32:09.944Z,9.36
2023-01-06T08:32:58.696Z,9.37
2023-01-06T08:33:58.752Z,9.38
2023-01-06T08:34:58.718Z,9.42
2023-01-06T08:35:58.739Z,9.48
2023-01-06T08:36:58.743Z,9.52
2023-01-06T08:37:58.751Z,9.58
2023-01-06T08:38:58.724Z,9.61
2023-01-06T08:39:58.794Z,9.63
2023-01-06T08:40:58.756Z,9.67
2023-01-06T08:41:58.856Z,9.70
2023-01-06T08:42:58.764Z,9.74
2023-01-06T08:45:58.788Z,9.73
2023-01-06T08:47:58.801Z,9.75
2023-01-06T08:48:58.766Z,9.78
2023-01-06T08:49:58.817Z,9.80
2023-01-06T08:50:58.767Z,9.75
2023-01-06T08:51:58.780Z,9.59
2023-01-06T08:52:58.753Z,9.49
2023-01-06T08:53:58.837Z,9.47
2023-01-06T08:54:58.860Z,9.51
2023-01-06T08:55:58.769Z,9.42
2023-01-06T08:56:58.800Z,9.49
2023-01-06T08:58:58.788Z,9.50
2023-01-06T08:59:58.829Z,9.55
2023-01-06T09:00:58.787Z,9.60
2023-01-06T09:01:58.983Z,9.65
2023-01-06T09:02:58.783Z,9.69
2023-01-06T09:03:58.792Z,9.74
2023-01-06T09:04:58.892Z,9.78
2023-01-06T09:05:58.859Z,9.81
2023-01-06T09:06:58.830Z,9.84
2023-01-06T09:07:58.831Z,9.79
2023-01-06T09:08:58.780Z,9.78
2023-01-06T09:09:58.845Z,9.70
2023-01-06T09:10:58.833Z,9.67
2023-01-06T09:12:58.839Z,9.65
2023-01-06T09:13:58.836Z,9.60
2023-01-06T09:14:58.879Z,9.47
2023-01-06T09:15:58.834Z,9.44
2023-01-06T09:16:58.838Z,9.33
2023-01-06T09:17:58.902Z,9.26
2023-01-06T09:18:58.850Z,9.18
2023-01-06T09:19:58.868Z,9.19
2023-01-06T09:20:58.859Z,9.22
2023-01-06T09:22:00.281Z,9.29
2023-01-06T09:22:58.901Z,9.35
2023-01-06T09:23:58.859Z,9.31
2023-01-06T09:24:58.907Z,9.37
2023-01-06T09:25:58.823Z,9.41
2023-01-06T09:26:58.864Z,9.44
2023-01-06T09:27:58.886Z,9.41
2023-01-06T09:29:58.920Z,9.45
2023-01-06T09:30:58.917Z,9.32
2023-01-06T09:31:58.863Z,9.20
2023-01-06T09:32:58.905Z,9.15
2023-01-06T09:34:58.858Z,9.21
2023-01-06T09:35:58.882Z,9.22
2023-01-06T09:36:58.946Z,9.17
2023-01-06T09:37:58.905Z,9.18
2023-01-06T09:39:58.964Z,9.11
2023-01-06T09:40:58.928Z,9.14
2023-01-06T09:41:58.895Z,9.19
2023-01-06T09:42:58.953Z,9.23
2023-01-06T09:43:58.870Z,9.25
2023-01-06T09:44:58.889Z,9.31
2023-01-06T09:45:58.916Z,9.32
2023-01-06T09:46:58.934Z,9.26
2023-01-06T09:47:58.965Z,9.28
2023-01-06T09:48:58.902Z,9.38
2023-01-06T09:49:58.946Z,9.39
2023-01-06T09:50:58.954Z,9.44
2023-01-06T09:52:58.940Z,9.42
2023-01-06T09:53:58.932Z,9.46
2023-01-06T09:54:58.889Z,9.55
2023-01-06T09:55:58.953Z,9.68
2023-01-06T09:56:58.963Z,9.81
2023-01-06T09:57:59.072Z,9.92
2023-01-06T09:58:58.907Z,10.01
2023-01-06T09:59:58.929Z,10.09
2023-01-06T10:00:58.949Z,10.17
2023-01-06T10:01:59.096Z,10.20
2023-01-06T10:02:58.986Z,10.24
2023-01-06T10:03:58.983Z,10.23
2023-01-06T10:04:58.956Z,10.20
2023-01-06T10:05:59.022Z,10.22
2023-01-06T10:06:58.927Z,10.26
2023-01-06T10:07:59.040Z,10.31
2023-01-06T10:08:58.979Z,10.36
2023-01-06T10:09:58.942Z,10.33
2023-01-06T10:10:59.006Z,10.37
2023-01-06T10:11:58.988Z,10.39
2023-01-06T10:13:58.989Z,10.44
2023-01-06T10:14:58.954Z,10.47
2023-01-06T10:16:58.998Z,10.42
2023-01-06T10:17:58.995Z,10.37
2023-01-06T10:18:58.990Z,10.26
2023-01-06T10:19:58.983Z,10.28
2023-01-06T10:20:59.039Z,10.34
2023-01-06T10:21:58.974Z,10.37
2023-01-06T10:22:58.975Z,10.43
2023-01-06T10:23:59.004Z,10.46
2023-01-06T10:24:58.984Z,10.43
2023-01-06T10:25:59.032Z,10.46
2023-01-06T10:26:58.996Z,10.50
2023-01-06T10:27:59.021Z,10.55
2023-01-06T10:28:59.021Z,10.58
2023-01-06T10:29:58.990Z,10.62
2023-01-06T10:30:59.133Z,10.64
2023-01-06T10:31:59.031Z,10.58
2023-01-06T10:32:59.023Z,10.56
2023-01-06T10:33:58.994Z,10.63
2023-01-06T10:34:59.028Z,10.66
2023-01-06T10:35:59.050Z,10.73
2023-01-06T10:36:59.071Z,10.81
2023-01-06T10:37:59.070Z,10.72
2023-01-06T10:38:59.122Z,10.67
2023-01-06T10:39:59.025Z,10.59
2023-01-06T10:40:59.048Z,10.49
2023-01-06T10:41:59.018Z,10.45
2023-01-06T10:42:59.028Z,10.43
2023-01-06T10:44:59.023Z,10.37
2023-01-06T10:45:59.087Z,10.34
2023-01-06T10:46:59.057Z,10.37
2023-01-06T10:47:59.035Z,10.38
2023-01-06T10:48:59.078Z,10.21
2023-01-06T10:49:59.062Z,10.25
2023-01-06T10:50:59.089Z,10.29
2023-01-06T10:51:59.084Z,10.34
2023-01-06T10:52:59.081Z,10.24
2023-01-06T10:53:59.148Z,10.08
2023-01-06T10:54:59.052Z,9.95
2023-01-06T10:55:59.058Z,9.86
2023-01-06T10:56:59.112Z,9.91
2023-01-06T10:57:59.055Z,10.01
2023-01-06T10:58:59.106Z,10.09
2023-01-06T10:59:59.108Z,10.18
2023-01-06T11:00:59.129Z,10.25
2023-01-06T11:01:59.332Z,10.29
2023-01-06T11:03:14.263Z,10.33
2023-01-06T11:03:59.148Z,10.40
2023-01-06T11:04:59.120Z,10.45
2023-01-06T11:05:59.113Z,10.53
2023-01-06T11:06:59.121Z,10.56
2023-01-06T11:07:59.090Z,10.55
2023-01-06T11:08:59.127Z,10.56
2023-01-06T11:09:59.071Z,10.57
2023-01-06T11:10:59.079Z,10.60
2023-01-06T11:11:59.202Z,10.64
2023-01-06T11:12:59.128Z,10.62
2023-01-06T11:13:59.139Z,10.56
2023-01-06T11:14:59.134Z,10.54
2023-01-06T11:15:59.120Z,10.58
2023-01-06T11:16:59.196Z,10.61
2023-01-06T11:18:59.162Z,10.59
2023-01-06T11:19:59.172Z,10.57
2023-01-06T11:20:59.172Z,10.49
2023-01-06T11:21:59.164Z,10.35
2023-01-06T11:22:59.123Z,10.26
2023-01-06T11:23:59.141Z,10.16
2023-01-06T11:25:59.163Z,10.22
2023-01-06T11:26:59.196Z,10.27
2023-01-06T11:27:59.148Z,10.37
2023-01-06T11:28:59.156Z,10.35
2023-01-06T11:29:59.204Z,10.26
2023-01-06T11:30:59.138Z,10.24
2023-01-06T11:31:59.227Z,10.23
2023-01-06T11:32:59.183Z,10.12
2023-01-06T11:33:59.159Z,10.01
2023-01-06T11:34:59.235Z,9.94
2023-01-06T11:35:59.180Z,9.61
2023-01-06T11:36:59.210Z,9.65
2023-01-06T11:37:59.155Z,9.67
2023-01-06T11:38:59.159Z,9.75
2023-01-06T11:40:10.350Z,9.78
2023-01-06T11:40:59.205Z,9.75
2023-01-06T11:41:59.214Z,9.71
2023-01-06T11:42:59.207Z,9.62
2023-01-06T11:43:59.211Z,9.41
2023-01-06T11:44:59.206Z,9.38
2023-01-06T11:45:59.368Z,9.37
2023-01-06T11:46:59.219Z,9.35
2023-01-06T11:47:59.187Z,9.45
2023-01-06T11:48:59.197Z,9.61
2023-01-06T11:49:59.222Z,9.72
2023-01-06T11:50:59.232Z,9.80
2023-01-06T11:51:59.215Z,9.87
2023-01-06T11:52:59.253Z,9.98
2023-01-06T11:53:59.206Z,10.09
2023-01-06T11:54:59.237Z,10.08
2023-01-06T11:55:59.200Z,10.16
2023-01-06T11:56:59.202Z,10.20
2023-01-06T11:57:59.296Z,10.27
2023-01-06T11:58:59.235Z,10.37
2023-01-06T11:59:59.240Z,10.46
2023-01-06T12:00:59.229Z,10.52
2023-01-06T12:01:59.513Z,10.59
2023-01-06T12:02:59.237Z,10.67
2023-01-06T12:03:59.269Z,10.75
2023-01-06T12:04:59.289Z,10.68
2023-01-06T12:05:59.229Z,10.57
2023-01-06T12:07:00.287Z,10.20
2023-01-06T12:07:59.267Z,10.15
2023-01-06T12:08:59.251Z,10.03
2023-01-06T12:09:59.269Z,10.02
2023-01-06T12:10:59.248Z,9.91
2023-01-06T12:11:59.261Z,9.74
2023-01-06T12:12:59.279Z,9.62
2023-01-06T12:14:59.332Z,9.65
2023-01-06T12:15:59.255Z,9.68
2023-01-06T12:16:59.406Z,9.58
2023-01-06T12:17:59.324Z,9.57
2023-01-06T12:18:59.251Z,9.44
2023-01-06T12:19:59.331Z,9.39
2023-01-06T12:20:59.290Z,9.30
2023-01-06T12:21:59.269Z,9.41
2023-01-06T12:22:59.309Z,9.30
2023-01-06T12:23:59.297Z,9.36
2023-01-06T12:24:59.349Z,9.34
2023-01-06T12:25:59.320Z,9.30
2023-01-06T12:26:59.257Z,9.32
2023-01-06T12:27:59.353Z,9.31
2023-01-06T12:28:59.269Z,9.24
2023-01-06T12:29:59.330Z,9.37
2023-01-06T12:30:59.427Z,9.43
2023-01-06T12:31:59.355Z,9.42
2023-01-06T12:32:59.369Z,9.55
2023-01-06T12:33:59.329Z,9.58
2023-01-06T12:34:59.332Z,9.55
2023-01-06T12:35:59.283Z,9.60
2023-01-06T12:36:59.341Z,9.70
2023-01-06T12:37:59.395Z,9.63
2023-01-06T12:38:59.327Z,9.56
2023-01-06T12:39:59.327Z,9.48
2023-01-06T12:40:59.322Z,9.46
2023-01-06T12:41:59.304Z,9.43
2023-01-06T12:43:59.345Z,9.35
2023-01-06T12:44:59.356Z,9.31
2023-01-06T12:45:59.440Z,9.39
2023-01-06T12:46:59.372Z,9.48
2023-01-06T12:47:59.413Z,9.59
2023-01-06T12:48:59.371Z,9.75
2023-01-06T12:49:59.381Z,9.79
2023-01-06T12:50:59.344Z,9.88
2023-01-06T12:51:59.357Z,9.70
2023-01-06T12:53:01.268Z,9.50
2023-01-06T12:53:59.344Z,9.24
2023-01-06T12:54:59.380Z,9.28
2023-01-06T12:55:59.393Z,9.29
2023-01-06T12:56:59.374Z,9.34
2023-01-06T12:57:59.332Z,9.39
2023-01-06T12:58:59.380Z,9.47
2023-01-06T12:59:59.349Z,9.54
2023-01-06T13:01:59.509Z,9.68
2023-01-06T13:02:59.388Z,9.72
2023-01-06T13:03:59.490Z,9.56
2023-01-06T13:05:59.445Z,9.62
2023-01-06T13:06:59.404Z,9.76
2023-01-06T13:07:59.407Z,9.92
2023-01-06T13:08:59.448Z,10.06
2023-01-06T13:09:59.395Z,10.23
2023-01-06T13:10:59.432Z,10.26
2023-01-06T13:11:59.385Z,10.39
2023-01-06T13:12:59.430Z,10.48
2023-01-06T13:13:59.428Z,10.49
2023-01-06T13:14:59.472Z,10.56
2023-01-06T13:15:59.465Z,10.61
2023-01-06T13:16:59.527Z,10.63
2023-01-06T13:17:59.389Z,10.56
2023-01-06T13:18:59.452Z,10.54
2023-01-06T13:19:59.445Z,10.52
2023-01-06T13:20:59.437Z,10.41
2023-01-06T13:21:59.439Z,10.18
2023-01-06T13:22:59.425Z,10.01
2023-01-06T13:23:59.503Z,10.00
2023-01-06T13:24:59.448Z,10.13
2023-01-06T13:25:59.452Z,10.27
2023-01-06T13:26:59.500Z,10.34
2023-01-06T13:27:59.416Z,10.39
2023-01-06T13:28:59.486Z,10.44
2023-01-06T13:30:59.505Z,10.45
2023-01-06T13:31:59.546Z,10.53
2023-01-06T13:32:59.428Z,10.51
2023-01-06T13:33:59.512Z,10.62
2023-01-06T13:34:59.467Z,10.72
2023-01-06T13:35:59.438Z,10.70
2023-01-06T13:36:59.487Z,10.58
2023-01-06T13:37:59.494Z,10.38
2023-01-06T13:38:59.495Z,10.19
2023-01-06T13:40:59.527Z,10.25
2023-01-06T13:41:59.535Z,10.26
2023-01-06T13:42:59.504Z,10.28
2023-01-06T13:43:59.534Z,10.33
2023-01-06T13:44:59.453Z,10.24
2023-01-06T13:45:59.541Z,10.07
2023-01-06T13:47:01.326Z,9.85
2023-01-06T13:48:59.515Z,9.97
2023-01-06T13:49:59.514Z,10.08
2023-01-06T13:50:59.511Z,10.16
2023-01-06T13:51:59.526Z,10.17
2023-01-06T13:52:59.522Z,10.34
2023-01-06T13:53:59.538Z,10.46
2023-01-06T13:54:59.574Z,10.52
2023-01-06T13:55:59.514Z,10.45
2023-01-06T13:56:59.538Z,10.42
2023-01-06T13:57:59.500Z,10.52
2023-01-06T13:58:59.525Z,10.54
2023-01-06T13:59:59.603Z,10.60
2023-01-06T14:00:59.560Z,10.59
2023-01-06T14:01:59.887Z,10.65
2023-01-06T14:02:59.573Z,10.56
2023-01-06T14:03:59.516Z,10.62
2023-01-06T14:04:59.599Z,10.66
2023-01-06T14:05:59.622Z,10.70
2023-01-06T14:06:59.575Z,10.57
2023-01-06T14:07:59.557Z,10.58
2023-01-06T14:08:59.534Z,10.61
2023-01-06T14:09:59.601Z,10.67
2023-01-06T14:10:59.541Z,10.79
2023-01-06T14:11:59.598Z,10.68
2023-01-06T14:12:59.585Z,10.75
2023-01-06T14:13:59.726Z,10.66
2023-01-06T14:14:59.572Z,10.52
2023-01-06T14:15:59.637Z,10.42
2023-01-06T14:16:59.681Z,10.03
2023-01-06T14:17:59.583Z,9.97
2023-01-06T14:18:59.575Z,10.11
2023-01-06T14:19:59.621Z,10.18
2023-01-06T14:20:59.541Z,10.09
2023-01-06T14:21:59.597Z,9.97
2023-01-06T14:22:59.626Z,9.80
2023-01-06T14:23:59.595Z,9.78
2023-01-06T14:24:59.632Z,9.81
2023-01-06T14:25:59.593Z,9.79
2023-01-06T14:26:59.608Z,9.56
2023-01-06T14:27:59.602Z,9.45
2023-01-06T14:28:59.631Z,9.55
2023-01-06T14:29:59.678Z,9.70
2023-01-06T14:30:59.645Z,9.91
2023-01-06T14:31:59.616Z,10.12
2023-01-06T14:32:59.606Z,10.33
2023-01-06T14:33:59.645Z,10.35
2023-01-06T14:34:59.624Z,10.03
2023-01-06T14:35:59.593Z,9.90
2023-01-06T14:37:59.620Z,10.01
2023-01-06T14:38:59.644Z,10.04
2023-01-06T14:39:59.617Z,10.18
2023-01-06T14:40:59.662Z,10.33
2023-01-06T14:41:59.616Z,10.50
2023-01-06T14:42:59.646Z,10.67
2023-01-06T14:43:59.647Z,10.84
2023-01-06T14:44:59.707Z,11.01
2023-01-06T14:45:59.698Z,11.15
2023-01-06T14:46:59.656Z,11.28
2023-01-06T14:47:59.620Z,11.39
2023-01-06T14:48:59.707Z,11.48
2023-01-06T14:49:59.667Z,11.44